Airfield :
LOGIN :

Register | Disclaimer

   EN    FR    IT 

 










Legend :    VFR   Marginal VFR   IFR   Intensive IFR   Very Intensive IFR
Visi :
Ceiling :
>= 8 km
>= 3000ft
5 to 8 km
1000 to 3000 ft
1500m to 5 km
500 to 1000 ft
800 to 1500m
200 to 500 ft
< 800m
< 200 ft
Symbols :   Thunderstorms  Fog  Heavy snow  Heavy precipitations  Wind > 20 kt
SIGMETs :     Misc.  Thunderstorms  Icing  Turbulence  Mountain Waves  Volcanic Ashes






- Airport Elevation : 9 ft
- IATA code : MIR


DTMB - Habib Bourguliba Int. Monastir

CURRENT METAR :
  • 011100Z 29008KT 9999 BKN046 15/05 Q1027

EXPIRED METARs :
  • 011030Z 29007KT 9999 BKN046 15/06 Q1028
  • 011000Z 29008KT 9999 BKN046 14/06 Q1028
  • 010930Z 30008KT 9999 BKN040 13/06 Q1028
  • 010900Z 30008KT 9999 BKN040 13/06 Q1028
  • 010830Z 30005KT 9999 BKN040 12/06 Q1027
  • 010800Z 29004KT 9999 BKN040 11/05 Q1027

TAF TAF DTMB
Valid from the 01 at 06:00 until the 02 at 06:00 UTC


010500Z 0106/0206 29010KT 9999 SCT020
BECMG 0113/0115 VRB02KT
BECMG 0201/0203 30010KT



MET'MAP, your aeronautical weather chart ! - Copyright ORBIFLY December 2007 - Disclaimer

ORBIFLY MET'MAP TEAM :

Programming & Development : Alexandra Zaïnal
Original concept : Baudouin d'Aumeries
Technical & hardware support : Manuel Goepfert
Assistance : Marc-Olivier Méhu




SOURCES & CREDITS :

   NOAA